WhaleNet STOP Data
Harbor Porpoise

the Institute of Marine Research
Bergen, Norway

Sighting Data for "Ulvstein", "Thor" and "Freya"
.

Harbor porpoises (Phocoena phocoena) tagged and released in June, 1999 in Norway in collaboration researchers with the Institute of Marine Research, Bergen, Norway, and the Duke University Marine Lab.


"Ulvstein"

"Thor"

"Freya"

Argos Number: 7248
Field number VF-01-99
Male 122 cm long
Tagged on 3 June 1999
Released at 00:20.

This animal was entangled in a salmon net in Varangerfjord, in northeastern Norway, approximately 1.8 nautical miles west of the Russian border. With the assistance of the local fishermen, the Ulvstein was removed from the net and place aboard a small boat where he received a satellite tag. He was released released shortly after, at approximately longitude 69.82 N and latitude 30.70 E.

"Ulvstein" Data

Argos Number: 7246
Field number VF-02-99
Male 150 cm long
Tagged on 3 June 1999
Released at 17:42.

This porpoise was trapped in a salmon net at Pasviknakken which is on the southern coast of Varangerfjord in northeastern Norway. After being rescued from the net, he received a satellite tag and was released at approximately 69.80 N longitude and 30.5 E latitude.

"Thor" Data

Argos Number: 7249
Field number VF-09-99
Female 152 cm long
Tagged on 10 June 1999
Released at 14:25

This female porpoise was entangled in a salmon net in Varangerfjord in northeastern Norway near the Russian border. With the help of a local salmon fisherman, she was removed from the net, received a satellite tag and was released. She was resighted later that day swimming in a small bay nearby.

"Freya" Data

Satellite Fixes

Data Format key:
Date (dd.mm.yy): 22.08.98 23:06:55 Time (hr:min:sec)(in GMT), LC (fix quality)

LC just stands for Location Class. Location Classes of 0 and up are the best (derived from 4 or more messages)- a Class 0 is good to within between 1,000 and 5,000 meters. Classes 1,2,3- get consistently more accurate. The letter classes are given no estimate of error, but the A's are better than the B's etc. It appears that some of the letter class locations are pretty good (i.e. several fixes over a short period are quite similar), but then others vary wildly- especially the longitude.

> Lat1: 48.275N [latitude] Lon1: 69.232W [longitude]

Sample Questions and Activities--

1. How far do harbor porpoise travel a day? (Average)
2. How far did they travel since their initial tagging?
3. Why do you think they are traveling in a particular direction?
4. Why do whales/porpoises migrate?
5. What is the average rate of travel?
6. What other questions do you have regarding these harbor porpoises?
7. How would you find your answers?
8. What other information would you need?

Analysis Tools

Blank Map for your use.

Map Generator Generate your own maps of any location.

Distance Generator Use this to determine the distance and heading between any two fixes.


"Thor" Data, Tag# 7246

Approx. Release Point
07246 Date : 03.06.99 16:09:38 LC : 2 IQ : 58 Lat1 : 69.819N Lon1 : 30.516E
07246 Date : 03.06.99 17:15:13 LC : 2 IQ : 58 Lat1 : 69.822N Lon1 : 30.640E
07246 Date : 04.06.99 15:43:45 LC : 1 IQ : 50 Lat1 : 69.817N Lon1 : 31.229E
07246 Date : 04.06.99 23:23:49 LC : 3 IQ : 66 Lat1 : 69.877N Lon1 : 31.219E
07246 Date : 10.06.99 19:45:32 LC : 1 IQ : 58 Lat1 : 69.985N Lon1 : 32.237E
07246 Date : 11.06.99 17:39:24 LC : 3 IQ : 67 Lat1 : 69.934N Lon1 : 32.397E
07246 Date : 12.06.99 15:56:46 LC : 2 IQ : 50 Lat1 : 69.917N Lon1 : 32.360E
07246 Date : 13.06.99 15:46:10 LC : 3 IQ : 60 Lat1 : 69.851N Lon1 : 32.504E
07246 Date : 15.06.99 19:31:41 LC : 1 IQ : 58 Lat1 : 69.745N Lon1 : 33.175E
07246 Date : 17.06.99 17:04:52 LC : 3 IQ : 68 Lat1 : 69.743N Lon1 : 31.387E
07246 Date : 18.06.99 18:24:24 LC : 3 IQ : 68 Lat1 : 69.916N Lon1 : 30.659E
07246 Date : 19.06.99 19:31:24 LC : 2 IQ : 58 Lat1 : 70.039N Lon1 : 30.984E
07246 Date : 20.06.99 19:17:31 LC : 3 IQ : 58 Lat1 : 69.883N Lon1 : 30.545E
07246 Date : 22.06.99 18:36:36 LC : 2 IQ : 68 Lat1 : 70.024N Lon1 : 30.088E
07246 Date : 23.06.99 18:40:49 LC : 3 IQ : 68 Lat1 : 69.951N Lon1 : 31.479E
07246 Date : 24.06.99 18:26:20 LC : 2 IQ : 58 Lat1 : 69.871N Lon1 : 31.889E
07246 Date : 25.06.99 19:11:40 LC : 1 IQ : 58 Lat1 : 69.642N Lon1 : 33.108E
07246 Date : 26.06.99 17:06:43 LC : 2 IQ : 57 Lat1 : 69.333N Lon1 : 34.422E
07246 Date : 27.06.99 18:26:32 LC : 3 IQ : 68 Lat1 : 69.045N Lon1 : 36.576E
07246 Date : 28.06.99 16:21:48 LC : 3 IQ : 60 Lat1 : 68.631N Lon1 : 38.278E
07246 Date : 29.06.99 17:42:13 LC : 1 IQ : 56 Lat1 : 68.395N Lon1 : 39.302E
07246 Date : 01.07.99 18:39:16 LC : 2 IQ : 58 Lat1 : 68.475N Lon1 : 39.800E
07246 Date : 02.07.99 17:04:49 LC : 1 IQ : 50 Lat1 : 68.361N Lon1 : 39.534E
07246 Date : 03.07.99 18:13:25 LC : 3 IQ : 68 Lat1 : 68.230N Lon1 : 39.072E
07246 Date : 04.07.99 17:59:37 LC : 1 IQ : 58 Lat1 : 68.219N Lon1 : 39.219E
07246 Date : 05.07.99 17:47:04 LC : 2 IQ : 58 Lat1 : 68.380N Lon1 : 39.662E
07246 Date : 06.07.99 15:53:15 LC : 1 IQ : 58 Lat1 : 68.359N Lon1 : 39.534E
07246 Date : 07.07.99 16:23:24 LC : 2 IQ : 50 Lat1 : 68.347N Lon1 : 39.485E
07246 Date : 08.07.99 16:01:03 LC : 1 IQ : 56 Lat1 : 68.405N Lon1 : 39.411E
07246 Date : 09.07.99 20:19:33 LC : 1 IQ : 57 Lat1 : 68.460N Lon1 : 39.416E
07246 Date : 10.07.99 18:38:31 LC : 2 IQ : 68 Lat1 : 68.481N Lon1 : 39.247E
07246 Date : 11.07.99 18:11:25 LC : 2 IQ : 56 Lat1 : 68.430N Lon1 : 39.379E
07246 Date : 12.07.99 16:43:46 LC : 0 IQ : 50 Lat1 : 68.518N Lon1 : 39.295E
07246 Date : 13.07.99 16:04:21 LC : 2 IQ : 50 Lat1 : 68.338N Lon1 : 39.576E
07246 Date : 14.07.99 15:56:41 LC : 1 IQ : 50 Lat1 : 68.265N Lon1 : 39.393E
07246 Date : 15.07.99 16:45:36 LC : 2 IQ : 56 Lat1 : 68.468N Lon1 : 39.796E
07246 Date : 16.07.99 16:23:48 LC : 1 IQ : 56 Lat1 : 68.395N Lon1 : 39.587E
07246 Date : 17.07.99 18:37:40 LC : 3 IQ : 68 Lat1 : 68.369N Lon1 : 39.714E
07246 Date : 18.07.99 16:07:22 LC : 1 IQ : 50 Lat1 : 68.385N Lon1 : 39.758E
07246 Date : 19.07.99 15:43:25 LC : 1 IQ : 50 Lat1 : 68.476N Lon1 : 39.143E
07246 Date : 22.07.99 17:33:33 LC : 2 IQ : 60 Lat1 : 68.565N Lon1 : 39.506E
07246 Date : 23.07.99 17:19:00 LC : 1 IQ : 56 Lat1 : 68.525N Lon1 : 39.610E
07246 Date : 24.07.99 18:27:06 LC : 1 IQ : 68 Lat1 : 68.447N Lon1 : 39.249E
07246 Date : 28.07.99 16:55:17 LC : 1 IQ : 60 Lat1 : 68.435N Lon1 : 39.197E
07246 Date : 29.07.99 16:34:54 LC : 1 IQ : 56 Lat1 : 68.523N Lon1 : 39.076E
07246 Date : 30.07.99 16:13:25 LC : 0 IQ : 50 Lat1 : 68.557N Lon1 : 38.730E


"Ulvstein" Data, Tag # 07248

Approx Release Point
07248 Date : 02.06.99 23:46:45 LC : 1 IQ : 50 Lat1 : 69.821N Lon1 : 30.719E
07248 Date : 03.06.99 01:07:00 LC : 1 IQ : 58 Lat1 : 69.839N Lon1 : 30.736E
07248 Date : 03.06.99 05:38:44 LC : 3 IQ : 58 Lat1 : 69.849N Lon1 : 30.981E
07248 Date : 04.06.99 01:17:22 LC : 1 IQ : 58 Lat1 : 69.969N Lon1 : 31.072E
07248 Date : 05.06.99 05:40:19 LC : 1 IQ : 58 Lat1 : 70.082N Lon1 : 31.238E
07248 Date : 10.06.99 05:12:00 LC : 1 IQ : 58 Lat1 : 69.893N Lon1 : 30.727E
07248 Date : 11.06.99 01:39:15 LC : 1 IQ : 58 Lat1 : 70.013N Lon1 : 30.554E
07248 Date : 12.06.99 04:29:22 LC : 1 IQ : 58 Lat1 : 70.006N Lon1 : 30.895E
07248 Date : 13.06.99 02:25:12 LC : 1 IQ : 58 Lat1 : 69.933N Lon1 : 30.710E
07248 Date : 14.06.99 03:44:58 LC : 1 IQ : 58 Lat1 : 70.061N Lon1 : 30.229E
07248 Date : 15.06.99 03:21:40 LC : 1 IQ : 58 Lat1 : 69.856N Lon1 : 30.623E
07248 Date : 17.06.99 22:36:29 LC : 1 IQ : 50 Lat1 : 70.038N Lon1 : 30.640E
07248 Date : 18.06.99 02:01:03 LC : 1 IQ : 58 Lat1 : 69.986N Lon1 : 30.389E
07248 Date : 19.06.99 03:00:53 LC : 1 IQ : 58 Lat1 : 69.950N Lon1 : 31.013E
07248 Date : 22.06.99 01:16:33 LC : 3 IQ : 58 Lat1 : 69.956N Lon1 : 30.930E
07248 Date : 23.06.99 03:44:12 LC : 1 IQ : 58 Lat1 : 69.976N Lon1 : 30.914E
07248 Date : 24.06.99 03:22:05 LC : 1 IQ : 58 Lat1 : 69.870N Lon1 : 30.485E
07248 Date : 25.06.99 02:25:40 LC : 0 IQ : 48 Lat1 : 69.835N Lon1 : 30.792E
07248 Date : 26.06.99 02:10:31 LC : 2 IQ : 58 Lat1 : 69.830N Lon1 : 30.873E
07248 Date : 27.06.99 03:41:29 LC : 1 IQ : 58 Lat1 : 69.882N Lon1 : 30.105E
07248 Date : 28.06.99 03:01:52 LC : 1 IQ : 58 Lat1 : 70.045N Lon1 : 29.675E
07248 Date : 29.06.99 03:55:11 LC : 0 IQ : 46 Lat1 : 70.104N Lon1 : 29.780E
07248 Date : 01.07.99 03:36:44 LC : 2 IQ : 58 Lat1 : 70.076N Lon1 : 29.458E
07248 Date : 02.07.99 23:09:38 LC : 1 IQ : 50 Lat1 : 70.009N Lon1 : 30.324E
07248 Date : 03.07.99 01:41:23 LC : 2 IQ : 58 Lat1 : 70.000N Lon1 : 30.489E
07248 Date : 05.07.99 03:48:00 LC : 1 IQ : 58 Lat1 : 69.857N Lon1 : 31.408E
07248 Date : 06.07.99 00:17:48 LC : 2 IQ : 58 Lat1 : 69.983N Lon1 : 31.139E
07248 Date : 06.07.99 00:17:48 LC : 2 IQ : 58 Lat1 : 69.983N Lon1 : 31.139E
07248 Date : 07.07.99 03:02:47 LC : 2 IQ : 68 Lat1 : 70.004N Lon1 : 30.518E
07248 Date : 08.07.99 02:39:33 LC : 1 IQ : 68 Lat1 : 69.998N Lon1 : 30.754E
07248 Date : 09.07.99 02:48:21 LC : 3 IQ : 68 Lat1 : 69.863N Lon1 : 31.159E
07248 Date : 10.07.99 02:27:21 LC : 1 IQ : 58 Lat1 : 69.942N Lon1 : 31.099E
07248 Date : 11.07.99 03:44:43 LC : 1 IQ : 58 Lat1 : 70.642N Lon1 : 32.648E
07248 Date : 12.07.99 03:21:28 LC : 2 IQ : 58 Lat1 : 70.222N Lon1 : 32.763E
07248 Date : 13.07.99 00:39:39 LC : 2 IQ : 58 Lat1 : 70.076N Lon1 : 32.952E
07248 Date : 14.07.99 00:28:53 LC : 3 IQ : 58 Lat1 : 70.524N Lon1 : 32.321E
07248 Date : 15.07.99 00:32:08 LC : 1 IQ : 58 Lat1 : 70.423N Lon1 : 32.633E
07248 Date : 16.07.99 01:46:18 LC : 2 IQ : 58 Lat1 : 70.601N Lon1 : 32.547E
07248 Date : 16.07.99 01:46:18 LC : 2 IQ : 58 Lat1 : 70.601N Lon1 : 32.547E
07248 Date : 17.07.99 03:10:59 LC : 2 IQ : 58 Lat1 : 70.454N Lon1 : 32.969E
07248 Date : 18.07.99 02:48:31 LC : 1 IQ : 58 Lat1 : 70.336N Lon1 : 32.689E
07248 Date : 19.07.99 01:13:55 LC : 2 IQ : 56 Lat1 : 70.250N Lon1 : 32.883E
07248 Date : 19.07.99 01:13:55 LC : 2 IQ : 56 Lat1 : 70.250N Lon1 : 32.883E
07248 Date : 22.07.99 01:18:12 LC : 1 IQ : 58 Lat1 : 69.831N Lon1 : 33.146E
07248 Date : 23.07.99 00:27:39 LC : 2 IQ : 56 Lat1 : 69.702N Lon1 : 33.303E
07248 Date : 24.07.99 02:14:49 LC : 2 IQ : 58 Lat1 : 69.791N Lon1 : 33.259E
07248 Date : 28.07.99 03:38:39 LC : 2 IQ : 58 Lat1 : 70.200N Lon1 : 34.064E
07248 Date : 29.07.99 02:02:46 LC : 2 IQ : 58 Lat1 : 70.524N Lon1 : 33.423E
07248 Date : 30.07.99 02:30:51 LC : 1 IQ : 58 Lat1 : 70.738N Lon1 : 33.230E
07248 Date : 31.07.99 01:17:19 LC : 2 IQ : 58 Lat1 : 70.661N Lon1 : 32.936E
07248 Date : 01.08.99 02:36:07 LC : 2 IQ : 58 Lat1 : 70.693N Lon1 : 33.661E
07248 Date : 02.08.99 00:14:54 LC : 2 IQ : 58 Lat1 : 70.896N Lon1 : 34.418E
07248 Date : 03.08.99 01:45:37 LC : 2 IQ : 58 Lat1 : 70.969N Lon1 : 34.217E
07248 Date : 04.08.99 01:33:20 LC : 1 IQ : 58 Lat1 : 70.500N Lon1 : 33.527E
07248 Date : 05.08.99 02:47:36 LC : 1 IQ : 58 Lat1 : 70.351N Lon1 : 33.007E
07248 Date : 06.08.99 01:11:21 LC : 2 IQ : 56 Lat1 : 70.293N Lon1 : 33.978E
07248 Date : 07.08.99 00:59:44 LC : 3 IQ : 60 Lat1 : 70.424N Lon1 : 33.344E
07248 Date : 08.08.99 00:47:17 LC : 3 IQ : 68 Lat1 : 70.445N Lon1 : 32.277E
07248 Date : 09.08.99 00:36:13 LC : 2 IQ : 58 Lat1 : 70.336N Lon1 : 32.565E
07248 Date : 10.08.99 02:06:02 LC : 3 IQ : 66 Lat1 : 70.059N Lon1 : 32.640E


"Freya" Data, Tag# 7249

Approx. Release Point
07249 Date : 10.06.99 13:01:09 LC : 1 IQ : 58 Lat1 : 69.800N Lon1 : 30.664E
07249 Date : 11.06.99 12:38:55 LC : 1 IQ : 58 Lat1 : 69.814N Lon1 : 30.667E
07249 Date : 13.06.99 11:56:00 LC : 1 IQ : 50 Lat1 : 69.815N Lon1 : 30.701E
07249 Date : 14.06.99 14:29:38 LC : 2 IQ : 68 Lat1 : 69.993N Lon1 : 30.566E
07249 Date : 15.06.99 18:39:46 LC : 2 IQ : 58 Lat1 : 70.031N Lon1 : 30.366
07249 Date : 17.06.99 17:06:30 LC : 2 IQ : 56 Lat1 : 70.085N Lon1 : 30.345E
07249 Date : 18.06.99 15:34:16 LC : 3 IQ : 68 Lat1 : 70.098N Lon1 : 30.345E
07249 Date : 19.06.99 19:31:44 LC : 2 IQ : 58 Lat1 : 70.061N Lon1 : 30.958E
07249 Date : 20.06.99 17:40:45 LC : 2 IQ : 58 Lat1 : 70.131N Lon1 : 30.630E
07249 Date : 22.06.99 16:56:33 LC : 2 IQ : 58 Lat1 : 69.932N Lon1 : 29.945E
07249 Date : 23.06.99 17:04:57 LC : 2 IQ : 68 Lat1 : 70.103N Lon1 : 30.442E
07249 Date : 24.06.99 14:20:15 LC : 3 IQ : 68 Lat1 : 69.890N Lon1 : 30.306E
07249 Date : 26.06.99 17:06:19 LC : 2 IQ : 58 Lat1 : 69.969N Lon1 : 30.953E
07249 Date : 27.06.99 16:43:52 LC : 1 IQ : 58 Lat1 : 69.851N Lon1 : 30.826E
07249 Date : 28.06.99 13:33:34 LC : 1 IQ : 58 Lat1 : 70.063N Lon1 : 31.309E
07249 Date : 29.06.99 17:43:37 LC : 1 IQ : 58 Lat1 : 69.988N Lon1 : 31.411E
07249 Date : 01.07.99 13:36:54 LC : 2 IQ : 56 Lat1 : 70.137N Lon1 : 31.595E
07249 Date : 02.07.99 16:44:11 LC : 2 IQ : 56 Lat1 : 70.225N Lon1 : 31.216E
07249 Date : 03.07.99 15:00:44 LC : 2 IQ : 56 Lat1 : 69.917N Lon1 : 30.451E
07249 Date : 04.07.99 17:32:07 LC : 1 IQ : 68 Lat1 : 69.912N Lon1 : 30.689E
07249 Date : 05.07.99 15:58:59 LC : 1 IQ : 58 Lat1 : 69.951N Lon1 : 31.517E
07249 Date : 06.07.99 16:44:45 LC : 3 IQ : 68 Lat1 : 69.995N Lon1 : 32.311E
07249 Date : 07.07.99 13:03:16 LC : 1 IQ : 58 Lat1 : 69.770N Lon1 : 33.001E
07249 Date : 07.07.99 15:12:13 LC : 2 IQ : 58 Lat1 : 69.762N Lon1 : 33.043E
07249 Date : 08.07.99 14:49:18 LC : 3 IQ : 66 Lat1 : 69.890N Lon1 : 33.198E
07249 Date : 09.07.99 17:18:47 LC : 2 IQ : 58 Lat1 : 69.418N Lon1 : 33.790E
07249 Date : 10.07.99 15:47:25 LC : 1 IQ : 58 Lat1 : 69.395N Lon1 : 34.072E
07249 Date : 11.07.99 13:11:38 LC : 2 IQ : 56 Lat1 : 69.404N Lon1 : 34.183E
07249 Date : 12.07.99 12:57:51 LC : 2 IQ : 66 Lat1 : 69.389N Lon1 : 34.834E
07249 Date : 13.07.99 12:30:47 LC : 1 IQ : 56 Lat1 : 69.361N Lon1 : 35.077E
07249 Date : 14.07.99 13:54:32 LC : 2 IQ : 58 Lat1 : 69.315N Lon1 : 34.943E
07249 Date : 15.07.99 14:02:10 LC : 3 IQ : 68 Lat1 : 69.389N Lon1 : 34.828E
07249 Date : 16.07.99 12:06:43 LC : 2 IQ : 50 Lat1 : 69.745N Lon1 : 36.470E
07249 Date : 16.07.99 12:06:43 LC : 2 IQ : 50 Lat1 : 69.745N Lon1 : 36.470E
07249 Date : 17.07.99 14:21:32 LC : 3 IQ : 68 Lat1 : 70.415N Lon1 : 36.791E
07249 Date : 18.07.99 12:45:41 LC : 1 IQ : 58 Lat1 : 70.674N Lon1 : 36.880E
07249 Date : 19.07.99 12:57:10 LC : 3 IQ : 66 Lat1 : 70.774N Lon1 : 36.403E
07249 Date : 20.07.99 12:45:39 LC : 2 IQ : 56 Lat1 : 70.512N Lon1 : 35.744E
07249 Date : 22.07.99 14:11:47 LC : 3 IQ : 56 Lat1 : 69.544N Lon1 : 36.447E
07249 Date : 23.07.99 15:40:14 LC : 1 IQ : 58 Lat1 : 68.949N Lon1 : 37.117E
07249 Date : 24.07.99 12:12:53 LC : 1 IQ : 56 Lat1 : 68.882N Lon1 : 37.474E


Track Map of Satellite Fix Locations

Additional and more complete data is available in the WhaleNet listerv.


Sample Questions and Activities--

1. How far do harbor porpoise travel a day? (Average)
2. How far did they travel since their initial tagging?
3. Why do you think they are traveling in a particular direction?
4. Why do whales/porpoises migrate?
5. What is the average rate of travel?
6. What other questions do you have regarding these harbor porpoise?
7. How would you find your answers?
8. What other information would you need?


WhaleNet
click here
Home Page